Time;durP1;ratioP1;P1;durP2;ratioP2;P2;SDS_P1;SDS_P2;PMS_P1;PMS_P2;Temp;Humidity;BMP_temperature;BMP_pressure;BME280_temperature;BME280_humidity;BME280_pressure;Samples;Min_cycle;Max_cycle;Signal;HPM_P1;HPM_P2
2023/03/10 00:01:19;;;;;;;37.30;17.83;;;;;;;3.51;100.00;98616.97;5033143;28;20045;-72
2023/03/10 00:03:47;;;;;;;38.50;17.70;;;;;;;3.49;100.00;98620.56;5049118;28;20042;-73
2023/03/10 00:06:19;;;;;;;37.40;16.42;;;;;;;3.46;100.00;98615.44;5030035;28;20038;-73
2023/03/10 00:08:47;;;;;;;34.53;17.00;;;;;;;3.41;100.00;98616.47;5028886;28;20045;-73
2023/03/10 00:11:14;;;;;;;36.67;17.42;;;;;;;3.34;100.00;98619.38;5036922;28;20482;-73
2023/03/10 00:13:42;;;;;;;34.42;16.52;;;;;;;3.28;100.00;98620.44;5044805;28;20572;-73
2023/03/10 00:16:25;;;;;;;27.20;15.05;;;;;;;3.25;100.00;98626.59;5064829;28;20492;-73
2023/03/10 00:18:53;;;;;;;33.13;14.75;;;;;;;3.18;100.00;98634.69;5040074;28;20041;-73
2023/03/10 00:21:28;;;;;;;33.00;15.23;;;;;;;3.18;100.00;98645.94;5049678;28;20042;-73
2023/03/10 00:23:57;;;;;;;28.48;14.43;;;;;;;3.18;100.00;98651.16;5046945;28;20049;-72
2023/03/10 00:26:27;;;;;;;28.45;13.82;;;;;;;3.16;100.00;98652.09;5048563;28;20509;-72
2023/03/10 00:28:55;;;;;;;30.98;14.32;;;;;;;3.17;100.00;98659.03;5032929;28;20506;-72
2023/03/10 00:31:25;;;;;;;28.33;13.07;;;;;;;3.15;100.00;98651.28;5051919;28;20088;-73
2023/03/10 00:33:54;;;;;;;28.52;14.38;;;;;;;3.12;100.00;98653.97;5042483;28;20077;-72
2023/03/10 00:36:28;;;;;;;23.23;12.35;;;;;;;3.09;100.00;98639.31;5042169;28;20044;-73
2023/03/10 00:38:56;;;;;;;22.90;13.07;;;;;;;3.05;100.00;98640.31;5043975;28;20037;-73
2023/03/10 00:41:29;;;;;;;23.90;12.73;;;;;;;3.02;100.00;98644.78;5029692;28;20041;-74
2023/03/10 00:43:58;;;;;;;26.25;13.32;;;;;;;2.97;100.00;98639.72;5036875;28;20065;-73
2023/03/10 00:46:26;;;;;;;21.75;12.82;;;;;;;2.97;100.00;98638.88;5047032;28;20104;-73
2023/03/10 00:48:54;;;;;;;17.40;11.10;;;;;;;2.94;100.00;98638.09;5043925;28;20116;-75
2023/03/10 00:51:22;;;;;;;19.30;11.35;;;;;;;2.94;100.00;98638.09;5034398;28;20042;-74
2023/03/10 00:53:49;;;;;;;23.40;14.93;;;;;;;2.93;100.00;98639.00;5043177;28;20049;-74
2023/03/10 00:56:20;;;;;;;23.02;14.70;;;;;;;2.95;100.00;98636.31;5024940;28;20074;-74
2023/03/10 00:58:54;;;;;;;22.27;14.93;;;;;;;2.95;100.00;98639.75;5038010;28;20991;-74
2023/03/10 01:01:26;;;;;;;24.73;16.10;;;;;;;2.93;100.00;98632.91;5047117;28;20045;-75
2023/03/10 01:03:58;;;;;;;23.55;15.75;;;;;;;2.93;100.00;98638.13;5040447;28;20029;-74
2023/03/10 01:06:26;;;;;;;28.67;15.20;;;;;;;2.94;100.00;98640.69;5036592;28;20042;-74
2023/03/10 01:08:53;;;;;;;25.45;15.48;;;;;;;3.00;100.00;98642.22;5039879;28;20121;-73
2023/03/10 01:11:26;;;;;;;26.33;15.57;;;;;;;3.06;100.00;98639.41;5045335;28;20557;-73
2023/03/10 01:13:58;;;;;;;26.33;16.60;;;;;;;3.10;100.00;98641.00;5045344;28;20048;-73
2023/03/10 01:16:27;;;;;;;29.05;15.70;;;;;;;3.11;100.00;98647.06;5045497;28;20045;-73
2023/03/10 01:18:56;;;;;;;28.85;16.50;;;;;;;3.17;100.00;98646.00;5040486;28;20038;-73
2023/03/10 01:21:28;;;;;;;31.05;16.38;;;;;;;3.19;100.00;98641.59;5028969;28;20036;-73
2023/03/10 01:23:55;;;;;;;30.05;15.93;;;;;;;3.25;100.00;98643.97;5044001;28;20038;-73
2023/03/10 01:26:22;;;;;;;35.50;17.95;;;;;;;3.31;100.00;98641.13;5027277;28;20592;-73
2023/03/10 01:28:50;;;;;;;41.33;18.15;;;;;;;3.35;100.00;98642.75;5036092;28;20037;-74
2023/03/10 01:31:17;;;;;;;32.58;16.90;;;;;;;3.40;100.00;98638.22;5044236;28;20092;-74
2023/03/10 01:33:46;;;;;;;32.42;17.15;;;;;;;3.44;100.00;98643.31;5041006;28;20918;-74
2023/03/10 01:36:24;;;;;;;26.42;16.05;;;;;;;3.47;100.00;98636.22;5027576;28;20582;-74
2023/03/10 01:38:55;;;;;;;44.67;18.70;;;;;;;3.51;100.00;98635.22;5036093;28;20108;-74
2023/03/10 01:41:22;;;;;;;33.97;17.25;;;;;;;3.54;100.00;98632.50;5031070;28;20057;-75
2023/03/10 01:43:54;;;;;;;44.88;18.33;;;;;;;3.55;100.00;98633.34;5065944;28;20037;-74
2023/03/10 01:46:39;;;;;;;29.10;17.00;;;;;;;3.55;100.00;98620.31;5045853;28;20044;-75
2023/03/10 01:49:23;;;;;;;36.33;17.90;;;;;;;3.54;100.00;98614.28;5040451;28;20049;-74
2023/03/10 01:52:01;;;;;;;46.63;19.13;;;;;;;3.56;100.00;98611.59;5039401;28;20050;-74
2023/03/10 01:54:55;;;;;;;29.33;16.92;;;;;;;3.55;100.00;98609.91;5059157;28;20042;-74
2023/03/10 01:57:35;;;;;;;38.65;18.70;;;;;;;3.56;100.00;98609.84;5034921;28;20053;-74
2023/03/10 02:00:11;;;;;;;34.88;17.80;;;;;;;3.60;100.00;98601.91;5041314;28;20037;-74
2023/03/10 02:03:21;;;;;;;38.65;18.35;;;;;;;3.62;100.00;98603.53;5043787;28;21004;-72
2023/03/10 02:05:57;;;;;;;43.08;19.60;;;;;;;3.63;100.00;98607.00;5030837;28;20532;-73
2023/03/10 02:08:32;;;;;;;35.80;17.98;;;;;;;3.66;100.00;98606.91;5036757;28;20037;-72
2023/03/10 02:11:00;;;;;;;38.63;18.58;;;;;;;3.64;100.00;98613.94;5063333;28;20042;-72
2023/03/10 02:13:27;;;;;;;35.97;18.83;;;;;;;3.66;100.00;98602.53;5038030;28;20048;-72
2023/03/10 02:15:54;;;;;;;42.75;20.17;;;;;;;3.69;100.00;98610.25;5047054;28;20047;-72
2023/03/10 02:18:22;;;;;;;32.28;17.60;;;;;;;3.72;100.00;98593.63;5043017;28;20129;-72
2023/03/10 02:21:12;;;;;;;46.50;19.77;;;;;;;3.74;100.00;98591.81;5033446;28;20120;-73
2023/03/10 02:24:10;;;;;;;37.88;19.50;;;;;;;3.74;100.00;98589.22;5035104;28;20078;-73
2023/03/10 02:27:04;;;;;;;33.42;18.02;;;;;;;3.76;100.00;98594.38;5030394;28;20065;-71
2023/03/10 02:29:49;;;;;;;53.22;21.05;;;;;;;3.81;100.00;98589.84;5043686;28;20057;-71
2023/03/10 02:32:33;;;;;;;43.53;19.80;;;;;;;3.85;100.00;98591.41;5052770;28;20129;-71
2023/03/10 02:35:00;;;;;;;35.50;18.80;;;;;;;3.88;100.00;98586.91;5026253;28;20049;-72
2023/03/10 02:37:32;;;;;;;41.15;19.92;;;;;;;3.93;100.00;98583.28;5042397;28;20041;-72
2023/03/10 02:40:01;;;;;;;49.53;21.73;;;;;;;3.99;100.00;98586.50;5042649;28;20505;-72
2023/03/10 02:42:35;;;;;;;38.00;18.77;;;;;;;4.02;100.00;98577.72;5025927;28;20131;-73
2023/03/10 02:45:03;;;;;;;37.47;18.88;;;;;;;4.06;100.00;98584.50;5026303;28;20033;-72
2023/03/10 02:47:31;;;;;;;37.65;18.70;;;;;;;4.07;100.00;98575.75;5036519;28;20049;-72
2023/03/10 02:49:58;;;;;;;34.38;18.27;;;;;;;4.08;100.00;98571.41;5056115;28;20073;-72
2023/03/10 02:52:39;;;;;;;65.65;22.70;;;;;;;4.08;100.00;98567.03;5040939;28;20157;-73
2023/03/10 02:55:06;;;;;;;59.60;21.27;;;;;;;4.10;100.00;98565.22;5042150;28;20113;-72
2023/03/10 02:57:33;;;;;;;105.30;25.42;;;;;;;4.09;100.00;98568.72;5039401;28;20983;-72
2023/03/10 03:00:04;;;;;;;41.40;18.83;;;;;;;4.09;100.00;98565.28;5041568;28;20045;-72
2023/03/10 03:02:31;;;;;;;51.63;20.17;;;;;;;4.09;100.00;98555.69;5037116;28;20037;-72
2023/03/10 03:04:58;;;;;;;45.00;20.40;;;;;;;4.10;100.00;98556.56;5040358;28;20084;-73
2023/03/10 03:07:27;;;;;;;50.70;20.67;;;;;;;4.10;100.00;98551.34;5039070;28;20038;-74
2023/03/10 03:09:55;;;;;;;49.08;20.77;;;;;;;4.12;100.00;98545.13;5025635;28;20046;-74
2023/03/10 03:12:22;;;;;;;47.42;20.67;;;;;;;4.10;100.00;98548.72;5054763;28;20472;-73
2023/03/10 03:14:49;;;;;;;42.40;19.48;;;;;;;4.07;100.00;98544.47;5033464;28;20057;-73
2023/03/10 03:17:16;;;;;;;43.72;19.38;;;;;;;4.04;100.00;98539.38;5030755;28;20132;-73
2023/03/10 03:19:43;;;;;;;47.45;19.73;;;;;;;4.01;100.00;98542.97;5043464;28;20045;-73
2023/03/10 03:22:10;;;;;;;45.92;19.38;;;;;;;3.98;100.00;98544.84;5059143;28;20049;-74
2023/03/10 03:24:38;;;;;;;35.05;18.92;;;;;;;3.99;100.00;98547.41;5042929;28;20044;-73
2023/03/10 03:27:05;;;;;;;48.80;21.02;;;;;;;4.00;100.00;98532.59;5043089;28;20553;-72
2023/03/10 03:29:32;;;;;;;51.85;21.17;;;;;;;4.02;100.00;98541.22;5035257;28;20456;-73
2023/03/10 03:31:59;;;;;;;49.17;21.05;;;;;;;4.03;100.00;98542.91;5053689;28;20041;-73
2023/03/10 03:34:30;;;;;;;45.15;21.25;;;;;;;4.01;100.00;98535.16;5038831;28;20037;-73
2023/03/10 03:37:01;;;;;;;45.65;20.35;;;;;;;4.03;100.00;98540.28;5030765;28;20582;-74
2023/03/10 03:39:32;;;;;;;58.58;23.23;;;;;;;4.10;100.00;98543.50;5026896;28;20038;-74
2023/03/10 03:42:03;;;;;;;37.60;19.27;;;;;;;4.11;100.00;98540.84;5034843;28;20038;-74
2023/03/10 03:44:39;;;;;;;42.15;20.58;;;;;;;4.12;100.00;98537.31;5041968;28;20026;-74
2023/03/10 03:47:09;;;;;;;41.72;20.77;;;;;;;4.15;100.00;98544.16;5043500;28;20041;-73
2023/03/10 03:49:37;;;;;;;48.08;21.42;;;;;;;4.16;100.00;98549.34;5040424;28;20799;-73
2023/03/10 03:52:06;;;;;;;54.03;22.27;;;;;;;4.17;100.00;98539.72;5041604;28;20060;-73
2023/03/10 03:54:34;;;;;;;39.95;20.55;;;;;;;4.20;100.00;98544.84;5045033;28;20065;-73
2023/03/10 03:57:02;;;;;;;47.55;21.92;;;;;;;4.19;100.00;98533.53;5044138;28;20045;-73
2023/03/10 03:59:29;;;;;;;39.15;20.05;;;;;;;4.22;100.00;98536.94;5040780;28;20344;-73
2023/03/10 04:01:56;;;;;;;54.40;22.88;;;;;;;4.23;100.00;98533.41;5044155;28;20134;-73
2023/03/10 04:04:24;;;;;;;48.58;21.83;;;;;;;4.21;100.00;98530.88;5053569;28;20041;-73
2023/03/10 04:06:52;;;;;;;46.22;21.20;;;;;;;4.17;100.00;98526.69;5047649;28;20034;-73
2023/03/10 04:09:19;;;;;;;55.45;22.45;;;;;;;4.16;100.00;98532.81;5045153;28;20053;-73
2023/03/10 04:11:46;;;;;;;44.78;20.77;;;;;;;4.17;100.00;98537.97;5030473;28;20033;-73
2023/03/10 04:14:14;;;;;;;44.78;20.70;;;;;;;4.19;100.00;98525.72;5043806;28;20037;-73
2023/03/10 04:16:41;;;;;;;45.42;20.77;;;;;;;4.22;100.00;98523.91;5048445;28;20128;-73
2023/03/10 04:19:08;;;;;;;38.88;20.33;;;;;;;4.27;100.00;98528.00;5046979;28;20052;-73
2023/03/10 04:21:39;;;;;;;41.55;20.65;;;;;;;4.28;100.00;98529.72;5050613;28;20100;-72
2023/03/10 04:24:08;;;;;;;42.47;20.58;;;;;;;4.28;100.00;98523.63;5050473;28;20038;-71
2023/03/10 04:26:35;;;;;;;44.42;20.58;;;;;;;4.30;100.00;98525.28;5056261;28;20038;-71
2023/03/10 04:29:03;;;;;;;43.33;19.27;;;;;;;4.31;100.00;98531.34;5028612;28;20045;-72
2023/03/10 04:31:32;;;;;;;35.95;18.85;;;;;;;4.31;100.00;98524.38;5053027;28;20096;-73
2023/03/10 04:34:01;;;;;;;40.30;20.30;;;;;;;4.31;100.00;98519.16;5034532;28;20066;-75
2023/03/10 04:36:29;;;;;;;44.17;20.60;;;;;;;4.33;100.00;98521.69;5064177;28;20561;-75
2023/03/10 04:38:59;;;;;;;50.03;21.40;;;;;;;4.33;100.00;98527.75;5038699;28;20073;-75
2023/03/10 04:41:29;;;;;;;60.40;22.20;;;;;;;4.33;100.00;98524.31;5045809;28;20037;-75
2023/03/10 04:43:56;;;;;;;64.60;23.05;;;;;;;4.35;100.00;98517.28;5045872;28;20077;-74
2023/03/10 04:46:23;;;;;;;52.97;21.67;;;;;;;4.37;100.00;98520.66;5029936;28;20133;-73
2023/03/10 04:48:51;;;;;;;47.28;21.85;;;;;;;4.38;100.00;98524.94;5043175;28;20399;-73
2023/03/10 04:51:18;;;;;;;47.22;22.05;;;;;;;4.39;100.00;98524.03;5033117;28;20137;-74
2023/03/10 04:53:51;;;;;;;40.42;19.33;;;;;;;4.42;100.00;98523.09;5041171;28;20638;-74
2023/03/10 04:56:20;;;;;;;42.45;20.75;;;;;;;4.42;100.00;98515.25;5043806;28;20909;-74
2023/03/10 04:58:47;;;;;;;48.45;21.13;;;;;;;4.45;100.00;98515.97;5053751;28;20041;-74
2023/03/10 05:01:15;;;;;;;40.05;19.48;;;;;;;4.44;100.00;98511.66;5044731;28;20049;-74
2023/03/10 05:03:49;;;;;;;51.75;21.65;;;;;;;4.44;100.00;98503.84;5030800;28;20088;-74
2023/03/10 05:06:20;;;;;;;60.10;23.30;;;;;;;4.41;100.00;98490.91;5051319;28;20207;-74
2023/03/10 05:08:56;;;;;;;47.65;21.23;;;;;;;4.42;100.00;98487.38;5052180;28;20093;-74
2023/03/10 05:11:24;;;;;;;82.60;26.08;;;;;;;4.43;100.00;98490.84;5039336;28;20046;-74
2023/03/10 05:13:51;;;;;;;62.05;23.35;;;;;;;4.43;100.00;98499.53;5032199;28;20038;-74
2023/03/10 05:16:21;;;;;;;49.30;22.05;;;;;;;4.41;100.00;98497.91;5031060;28;20042;-75
2023/03/10 05:18:49;;;;;;;61.28;22.15;;;;;;;4.39;100.00;98497.94;5043328;28;20510;-75
2023/03/10 05:21:21;;;;;;;55.17;21.42;;;;;;;4.36;100.00;98485.06;5058981;28;20589;-73
2023/03/10 05:23:49;;;;;;;54.42;21.25;;;;;;;4.34;100.00;98502.53;5044707;28;20100;-73
2023/03/10 05:26:18;;;;;;;72.38;24.15;;;;;;;4.29;100.00;98496.63;5043689;28;20068;-72
2023/03/10 05:28:46;;;;;;;54.08;21.27;;;;;;;4.29;100.00;98491.41;5035350;28;20421;-73
2023/03/10 05:31:24;;;;;;;53.90;21.98;;;;;;;4.30;100.00;98491.38;5040773;28;20576;-72
2023/03/10 05:33:56;;;;;;;73.43;24.08;;;;;;;4.30;100.00;98491.38;5040722;28;20042;-72
2023/03/10 05:36:24;;;;;;;53.95;21.10;;;;;;;4.31;100.00;98495.69;5040790;28;20091;-73
2023/03/10 05:38:52;;;;;;;51.63;21.08;;;;;;;4.32;100.00;98489.53;5033639;28;20092;-75
2023/03/10 05:41:19;;;;;;;48.17;21.65;;;;;;;4.42;100.00;98483.94;5051175;28;20045;-74
2023/03/10 05:43:50;;;;;;;53.95;23.20;;;;;;;4.53;100.00;98486.09;5029054;28;20617;-75
2023/03/10 05:46:18;;;;;;;39.13;18.80;;;;;;;4.54;100.00;98496.44;5043453;28;20580;-75
2023/03/10 05:48:51;;;;;;;40.13;20.00;;;;;;;4.62;100.00;98491.75;5024731;28;20064;-71
2023/03/10 05:51:19;;;;;;;23.17;15.35;;;;;;;4.74;100.00;98497.34;5058984;28;20135;-70
2023/03/10 05:53:47;;;;;;;18.98;13.07;;;;;;;4.89;100.00;98493.19;5042337;28;20049;-71
2023/03/10 05:56:20;;;;;;;24.73;16.70;;;;;;;5.04;100.00;98486.44;5040054;28;20561;-71
2023/03/10 05:58:51;;;;;;;40.22;19.52;;;;;;;5.05;100.00;98493.38;5053377;28;20050;-71
2023/03/10 06:01:23;;;;;;;33.53;17.83;;;;;;;5.00;100.00;98498.78;5056825;28;20048;-71
2023/03/10 06:03:50;;;;;;;23.55;16.15;;;;;;;5.02;100.00;98494.34;5045569;28;20041;-71
2023/03/10 06:06:17;;;;;;;47.38;19.50;;;;;;;5.09;100.00;98501.00;5043273;28;20196;-71
2023/03/10 06:08:44;;;;;;;28.40;16.60;;;;;;;5.04;100.00;98502.97;5044895;28;20048;-71
2023/03/10 06:11:11;;;;;;;24.85;15.65;;;;;;;5.03;100.00;98498.66;5043742;28;20038;-71
2023/03/10 06:13:38;;;;;;;28.48;16.58;;;;;;;5.08;100.00;98488.00;5043129;28;20053;-72
2023/03/10 06:16:06;;;;;;;41.50;19.27;;;;;;;5.03;100.00;98497.84;5045430;28;20064;-72
2023/03/10 06:18:34;;;;;;;23.90;14.20;;;;;;;4.96;100.00;98495.47;5045299;28;20046;-72
2023/03/10 06:21:11;;;;;;;28.67;15.80;;;;;;;5.03;100.00;98495.22;5046770;28;20048;-71
2023/03/10 06:23:39;;;;;;;33.72;16.92;;;;;;;5.08;100.00;98490.63;5026576;28;20061;-71
2023/03/10 06:26:15;;;;;;;34.80;17.77;;;;;;;5.10;100.00;98500.06;5041645;28;20038;-70
2023/03/10 06:28:45;;;;;;;44.47;18.60;;;;;;;5.06;100.00;98502.91;5041834;28;20065;-70
2023/03/10 06:31:20;;;;;;;38.20;18.55;;;;;;;4.99;100.00;98507.53;5044432;28;20034;-70
2023/03/10 06:33:48;;;;;;;39.17;18.10;;;;;;;4.93;100.00;98508.69;5044504;28;20041;-70
2023/03/10 06:36:16;;;;;;;39.03;17.77;;;;;;;4.91;100.00;98502.69;5044221;28;20098;-70
2023/03/10 06:38:44;;;;;;;43.80;19.30;;;;;;;4.89;100.00;98511.47;5041121;28;20033;-70
2023/03/10 06:41:12;;;;;;;45.05;18.88;;;;;;;4.86;100.00;98514.25;5040101;28;20049;-70
2023/03/10 06:43:39;;;;;;;45.95;19.40;;;;;;;4.84;100.00;98523.91;5039012;28;20041;-70
2023/03/10 06:46:09;;;;;;;47.63;19.55;;;;;;;4.82;100.00;98529.19;5043496;28;20038;-70
2023/03/10 06:48:38;;;;;;;50.22;20.25;;;;;;;4.81;100.00;98530.94;5040087;28;20487;-70
2023/03/10 06:51:13;;;;;;;32.25;16.90;;;;;;;4.79;100.00;98527.56;5058732;28;20045;-70
2023/03/10 06:53:40;;;;;;;31.55;15.90;;;;;;;4.67;100.00;98525.50;5045129;28;20037;-70
2023/03/10 06:56:14;;;;;;;40.63;16.85;;;;;;;4.58;100.00;98524.13;5041718;28;20109;-70
2023/03/10 06:58:42;;;;;;;;;;;;;;;4.51;100.00;98523.53;5040870;28;20045;-70
2023/03/10 07:01:26;;;;;;;36.80;16.98;;;;;;;4.53;100.00;98531.28;5057485;28;19925;-70
2023/03/10 07:03:54;;;;;;;41.37;17.60;;;;;;;4.55;100.00;98532.06;5040520;28;20071;-70
2023/03/10 07:06:23;;;;;;;34.78;16.88;;;;;;;4.53;100.00;98525.22;5040845;28;20037;-70
2023/03/10 07:08:52;;;;;;;39.38;16.58;;;;;;;4.45;100.00;98538.59;5043148;28;20060;-70
2023/03/10 07:11:21;;;;;;;28.27;13.63;;;;;;;4.40;100.00;98538.78;5051715;28;20038;-70
2023/03/10 07:13:48;;;;;;;36.22;15.82;;;;;;;4.30;100.00;98540.94;5055493;28;20056;-70
2023/03/10 07:16:16;;;;;;;32.20;15.88;;;;;;;4.25;100.00;98529.00;5049251;28;20065;-70
2023/03/10 07:18:43;;;;;;;30.40;14.57;;;;;;;4.23;100.00;98542.09;5027228;28;20042;-70
2023/03/10 07:21:15;;;;;;;35.03;15.52;;;;;;;4.17;100.00;98545.78;5031023;28;20112;-71
2023/03/10 07:23:43;;;;;;;30.70;15.00;;;;;;;4.16;100.00;98540.66;5044487;28;20034;-71
2023/03/10 07:26:14;;;;;;;32.58;14.82;;;;;;;4.11;100.00;98540.00;5026399;28;20042;-72
2023/03/10 07:28:41;;;;;;;34.70;15.40;;;;;;;4.11;100.00;98540.84;5027277;28;20061;-70
2023/03/10 07:31:11;;;;;;;31.83;15.77;;;;;;;4.15;100.00;98541.56;5034799;28;20048;-71
2023/03/10 07:33:39;;;;;;;36.85;16.05;;;;;;;4.15;100.00;98549.38;5068109;28;20041;-70
2023/03/10 07:36:10;;;;;;;37.25;17.75;;;;;;;4.14;100.00;98555.50;5068126;28;20560;-70
2023/03/10 07:38:38;;;;;;;36.65;16.55;;;;;;;4.13;100.00;98553.78;5051058;28;20748;-70
2023/03/10 07:41:08;;;;;;;34.15;16.02;;;;;;;4.15;100.00;98555.47;5069804;28;20055;-70
2023/03/10 07:43:35;;;;;;;30.48;15.10;;;;;;;4.18;100.00;98567.50;5068588;28;20045;-70
2023/03/10 07:46:13;;;;;;;31.00;15.32;;;;;;;4.22;100.00;98560.41;5068525;28;20037;-70
2023/03/10 07:48:42;;;;;;;33.25;15.35;;;;;;;4.20;100.00;98560.47;5070094;28;20048;-71
2023/03/10 07:51:09;;;;;;;36.70;14.73;;;;;;;4.22;100.00;98560.41;5068379;28;20037;-70
2023/03/10 07:53:36;;;;;;;36.05;15.05;;;;;;;4.24;100.00;98569.03;5058842;28;20042;-70
2023/03/10 07:56:10;;;;;;;26.15;13.52;;;;;;;4.34;100.00;98571.19;5029486;28;20124;-70
2023/03/10 07:58:38;;;;;;;29.45;13.82;;;;;;;4.43;100.00;98572.56;5044870;28;20141;-70
2023/03/10 08:01:07;;;;;;;20.77;10.93;;;;;;;4.50;100.00;98567.97;5029105;28;20046;-70
2023/03/10 08:03:34;;;;;;;25.50;12.02;;;;;;;4.45;100.00;98565.53;5029366;28;20038;-70
2023/03/10 08:06:04;;;;;;;23.25;11.60;;;;;;;4.39;100.00;98564.94;5045102;28;20147;-71
2023/03/10 08:08:31;;;;;;;24.38;11.52;;;;;;;4.36;100.00;98568.53;5051505;28;20040;-70
2023/03/10 08:11:09;;;;;;;17.58;10.32;;;;;;;4.33;100.00;98571.25;5069320;28;20060;-70
2023/03/10 08:13:37;;;;;;;23.65;11.10;;;;;;;4.34;100.00;98573.78;5068219;28;20526;-70
2023/03/10 08:16:06;;;;;;;21.42;10.68;;;;;;;4.35;100.00;98585.94;5061739;28;20509;-71
2023/03/10 08:18:33;;;;;;;18.27;9.40;;;;;;;4.37;100.00;98577.19;5043299;28;20116;-70
2023/03/10 08:21:04;;;;;;;17.75;9.30;;;;;;;4.39;100.00;98585.81;5040428;28;20073;-70
2023/03/10 08:23:32;;;;;;;16.20;8.43;;;;;;;4.41;100.00;98586.59;5040759;28;20038;-69
2023/03/10 08:26:04;;;;;;;15.30;8.27;;;;;;;4.37;100.00;98588.50;5036357;28;20048;-70
2023/03/10 08:28:33;;;;;;;14.60;7.78;;;;;;;4.43;100.00;98589.97;5041524;28;20112;-70
2023/03/10 08:31:09;;;;;;;15.20;8.07;;;;;;;4.54;100.00;98594.78;5037806;28;20057;-70
2023/03/10 08:33:37;;;;;;;15.55;8.35;;;;;;;4.60;100.00;98597.97;5035272;28;20144;-70
2023/03/10 08:36:13;;;;;;;14.65;8.05;;;;;;;4.71;100.00;98594.06;5041331;28;20042;-70
2023/03/10 08:38:41;;;;;;;18.23;8.70;;;;;;;4.72;100.00;98590.56;5035413;28;20669;-70
2023/03/10 08:41:18;;;;;;;14.63;9.05;;;;;;;4.73;100.00;98600.91;5052865;28;20044;-70
2023/03/10 08:43:46;;;;;;;15.32;8.77;;;;;;;4.66;100.00;98602.09;5049015;28;20049;-70
2023/03/10 08:46:18;;;;;;;14.05;8.20;;;;;;;4.63;100.00;98600.44;5048077;28;20121;-70
2023/03/10 08:48:46;;;;;;;16.20;8.90;;;;;;;4.61;100.00;98601.41;5060896;28;20045;-70
2023/03/10 08:51:14;;;;;;;13.98;8.05;;;;;;;4.59;100.00;98605.84;5060645;28;20601;-70
2023/03/10 08:53:46;;;;;;;17.13;9.02;;;;;;;4.61;100.00;98609.25;5059190;28;20037;-70
2023/03/10 08:56:15;;;;;;;18.35;8.60;;;;;;;4.63;100.00;98600.44;5068282;28;20037;-70
2023/03/10 08:58:42;;;;;;;19.20;9.38;;;;;;;4.74;100.00;98594.78;5062387;28;20136;-70
2023/03/10 09:01:12;;;;;;;14.52;8.23;;;;;;;4.82;100.00;98591.84;5043217;28;20046;-71
2023/03/10 09:03:41;;;;;;;15.68;7.70;;;;;;;4.84;100.00;98592.63;5042532;28;20034;-71
2023/03/10 09:06:09;;;;;;;16.88;9.45;;;;;;;4.85;100.00;98594.31;5042616;28;20038;-72
2023/03/10 09:08:38;;;;;;;13.75;7.70;;;;;;;4.86;100.00;98597.78;5034035;28;20117;-71
2023/03/10 09:11:06;;;;;;;12.85;7.60;;;;;;;4.88;100.00;98590.75;5038944;28;20038;-71
2023/03/10 09:13:33;;;;;;;15.32;8.20;;;;;;;4.91;100.00;98585.38;5046925;28;20056;-71
2023/03/10 09:16:00;;;;;;;15.20;8.43;;;;;;;5.02;100.00;98585.75;5062266;28;20124;-71
2023/03/10 09:18:27;;;;;;;18.52;9.60;;;;;;;5.12;100.00;98587.06;5041702;28;20502;-71
2023/03/10 09:20:54;;;;;;;20.20;10.50;;;;;;;5.20;100.00;98586.72;5043762;28;20172;-71
2023/03/10 09:23:21;;;;;;;19.33;9.38;;;;;;;5.27;100.00;98590.75;5040717;28;20045;-71
2023/03/10 09:25:48;;;;;;;17.75;9.35;;;;;;;5.37;100.00;98595.56;5045853;28;20048;-71
2023/03/10 09:28:15;;;;;;;17.30;9.43;;;;;;;5.44;100.00;98597.00;5028081;28;20049;-69
2023/03/10 09:30:45;;;;;;;18.20;8.77;;;;;;;5.49;100.00;98592.41;5040191;28;20825;-70
2023/03/10 09:33:18;;;;;;;15.35;8.55;;;;;;;5.60;100.00;98603.22;5027435;28;20050;-70
2023/03/10 09:35:46;;;;;;;13.55;7.93;;;;;;;5.68;100.00;98591.56;5028436;28;20042;-70
2023/03/10 09:38:31;;;;;;;14.50;8.13;;;;;;;5.78;100.00;98594.63;5065270;28;20037;-70
2023/03/10 09:41:29;;;;;;;18.25;9.07;;;;;;;5.84;100.00;98589.09;5067459;28;20052;-71
2023/03/10 09:44:33;;;;;;;17.98;9.10;;;;;;;5.86;100.00;98592.47;5066508;28;20099;-70
2023/03/10 09:47:09;;;;;;;17.55;9.52;;;;;;;5.88;100.00;98596.72;5065629;28;20057;-71
2023/03/10 09:49:46;;;;;;;18.70;10.05;;;;;;;5.88;100.00;98588.88;5068610;28;20033;-70
2023/03/10 09:52:35;;;;;;;20.67;9.80;;;;;;;5.86;100.00;98584.63;5067730;28;20161;-70
2023/03/10 09:55:17;;;;;;;;;;;;;;;5.86;100.00;98582.84;5048631;28;20581;-70
2023/03/10 09:57:49;;;;;;;27.85;12.82;;;;;;;5.90;100.00;98587.03;5046011;28;19931;-71
2023/03/10 10:00:34;;;;;;;27.20;12.45;;;;;;;5.94;100.00;98582.50;5029841;28;20085;-70
2023/03/10 10:03:32;;;;;;;23.50;12.05;;;;;;;5.99;100.00;98584.91;5047576;28;20048;-70
2023/03/10 10:06:24;;;;;;;28.08;12.55;;;;;;;5.98;100.00;98586.69;5035561;28;20132;-70
2023/03/10 10:09:21;;;;;;;26.38;12.48;;;;;;;6.01;100.00;98586.53;5027107;28;20038;-71
2023/03/10 10:11:48;;;;;;;25.85;11.63;;;;;;;6.03;100.00;98587.31;5027382;28;20042;-70
2023/03/10 10:14:27;;;;;;;24.73;10.55;;;;;;;6.12;100.00;98586.06;5027508;28;20034;-70
2023/03/10 10:17:49;;;;;;;20.15;9.13;;;;;;;6.19;100.00;98579.59;5026484;28;20129;-70
2023/03/10 10:20:38;;;;;;;19.65;10.13;;;;;;;6.27;100.00;98594.06;5052351;28;20141;-70
2023/03/10 10:23:26;;;;;;;24.00;9.77;;;;;;;6.31;100.00;98596.44;5062767;28;20041;-70
2023/03/10 10:25:53;;;;;;;20.88;9.93;;;;;;;6.42;100.00;98597.69;5046325;28;20041;-70
2023/03/10 10:28:37;;;;;;;19.05;8.75;;;;;;;6.51;100.00;98592.88;5047510;28;20540;-70
2023/03/10 10:31:26;;;;;;;20.17;8.70;;;;;;;6.60;100.00;98591.59;5046913;28;20129;-70
2023/03/10 10:34:00;;;;;;;17.55;8.35;;;;;;;6.67;100.00;98594.72;5048954;28;20476;-70
2023/03/10 10:36:34;;;;;;;;;;;;;;;6.76;100.00;98596.03;5067833;28;20069;-70
2023/03/10 10:39:18;;;;;;;14.98;8.38;;;;;;;6.79;100.00;98599.34;5066944;28;20446;-71
2023/03/10 10:41:45;;;;;;;16.50;8.52;;;;;;;6.83;100.00;98597.41;5067517;28;20041;-70
2023/03/10 10:44:16;;;;;;;15.95;8.50;;;;;;;6.93;100.00;98606.50;5067219;28;20551;-70
2023/03/10 10:46:53;;;;;;;16.10;8.50;;;;;;;6.98;100.00;98593.16;5066369;28;20042;-71
2023/03/10 10:49:27;;;;;;;16.63;8.85;;;;;;;7.09;100.00;98592.63;5055468;28;20045;-70
2023/03/10 10:52:19;;;;;;;15.98;8.75;;;;;;;7.26;100.00;98599.63;5047126;28;20038;-70
2023/03/10 10:54:57;;;;;;;17.42;8.98;;;;;;;7.34;100.00;98605.28;5062510;28;20048;-70
2023/03/10 10:57:37;;;;;;;14.68;8.43;;;;;;;7.30;100.00;98599.38;5032675;28;20053;-70
2023/03/10 11:00:37;;;;;;;13.50;8.40;;;;;;;7.18;100.00;98600.00;5041832;28;20061;-70
2023/03/10 11:03:36;;;;;;;16.33;8.82;;;;;;;7.13;100.00;98607.25;5025990;28;20083;-70
2023/03/10 11:06:17;;;;;;;18.02;8.80;;;;;;;7.13;100.00;98602.00;5030483;28;20042;-70
2023/03/10 11:08:49;;;;;;;15.73;7.97;;;;;;;7.09;100.00;98605.72;5052394;28;20153;-70
2023/03/10 11:11:30;;;;;;;13.57;8.27;;;;;;;7.03;100.00;98600.78;5068867;28;20037;-70
2023/03/10 11:14:22;;;;;;;18.02;9.23;;;;;;;6.97;100.00;98597.56;5070884;28;20129;-70
2023/03/10 11:16:56;;;;;;;16.90;9.50;;;;;;;6.97;100.00;98605.44;5046994;28;20045;-71
2023/03/10 11:19:57;;;;;;;21.60;9.63;;;;;;;6.92;100.00;98607.41;5047413;28;20045;-71
2023/03/10 11:22:39;;;;;;;15.55;10.00;;;;;;;6.84;100.00;98604.34;5044935;28;20026;-71
2023/03/10 11:26:03;;;;;;;24.30;12.32;;;;;;;6.78;100.00;98599.44;5039450;28;20183;-71
2023/03/10 11:28:53;;;;;;;25.15;12.48;;;;;;;6.68;100.00;98604.28;5053757;28;20297;-71
2023/03/10 11:31:49;;;;;;;20.63;11.77;;;;;;;6.63;100.00;98596.66;5068942;28;20056;-71
2023/03/10 11:34:48;;;;;;;19.17;11.13;;;;;;;6.62;100.00;98596.72;5060092;28;20041;-70
2023/03/10 11:37:41;;;;;;;27.73;14.15;;;;;;;6.61;100.00;98597.66;5058760;28;20045;-70
2023/03/10 11:40:52;;;;;;;22.63;11.32;;;;;;;6.61;100.00;98590.66;5068821;28;20045;-71
2023/03/10 11:43:47;;;;;;;25.05;11.45;;;;;;;6.60;100.00;98581.09;5067255;28;20476;-70
2023/03/10 11:46:59;;;;;;;22.67;11.73;;;;;;;6.60;100.00;98583.72;5039466;28;20042;-70